Terminal Aerodrome Forecast
Issued by NWS

Home | Current Version | Previous Version | Text Only | Print | Product List | Glossary On
Versions: 1 2 3 4 5 6 7 8 9 10 11
000
FTUS45 KRIW 281700
TAFRKS
TAF
KRKS 281720Z 2818/2918 25014G20KT 2SM -SN BLSN SCT012 OVC020
     FM282100 26020G30KT 3SM -SN BLSN SCT020 BKN040
     FM290200 26011KT 4SM -SN SCT025 BKN035
     FM291000 06018G24KT 2SM -SN BLSN OVC015=

USA.gov is the U.S. government's official web portal to all federal, state and local government web resources and services.